createdAt,value
2022-08-01T00:02:18.586Z,8.15
2022-08-01T00:04:48.577Z,7.05
2022-08-01T00:07:18.666Z,9.75
2022-08-01T00:09:48.651Z,9.40
2022-08-01T00:12:21.310Z,8.65
2022-08-01T00:14:51.281Z,8.23
2022-08-01T00:17:21.286Z,9.50
2022-08-01T00:19:51.290Z,11.20
2022-08-01T00:22:21.271Z,8.25
2022-08-01T00:24:51.253Z,10.88
2022-08-01T00:27:23.812Z,9.60
2022-08-01T00:30:13.160Z,8.80
2022-08-01T00:32:43.746Z,10.63
2022-08-01T00:35:14.495Z,10.52
2022-08-01T00:37:45.242Z,8.80
2022-08-01T00:40:15.237Z,12.30
2022-08-01T00:42:47.850Z,11.13
2022-08-01T00:45:17.859Z,9.98
2022-08-01T00:47:48.086Z,9.32
2022-08-01T00:50:25.421Z,10.65
2022-08-01T00:52:55.662Z,9.55
2022-08-01T00:55:26.533Z,8.77
2022-08-01T00:58:02.344Z,8.88
2022-08-01T01:00:52.163Z,9.10
2022-08-01T01:03:55.943Z,10.68
2022-08-01T01:06:24.457Z,10.82
2022-08-01T01:09:05.241Z,10.13
2022-08-01T01:11:43.140Z,10.07
2022-08-01T01:14:26.360Z,13.07
2022-08-01T01:16:57.744Z,13.18
2022-08-01T01:19:32.255Z,10.82
2022-08-01T01:22:21.931Z,10.35
2022-08-01T01:25:06.294Z,12.18
2022-08-01T01:27:45.980Z,10.75
2022-08-01T01:30:19.408Z,10.35
2022-08-01T01:32:53.972Z,10.73
2022-08-01T01:35:28.795Z,9.80
2022-08-01T01:38:05.353Z,10.52
2022-08-01T01:40:36.883Z,8.90
2022-08-01T01:43:07.357Z,13.13
2022-08-01T01:45:40.621Z,11.70
2022-08-01T01:48:11.909Z,14.20
2022-08-01T01:50:42.618Z,10.65
2022-08-01T01:53:15.155Z,11.98
2022-08-01T01:55:50.122Z,9.65
2022-08-01T01:58:21.590Z,11.93
2022-08-01T02:00:56.129Z,11.00
2022-08-01T02:03:28.056Z,9.50
2022-08-01T02:05:58.988Z,10.77
2022-08-01T02:08:29.318Z,9.82
2022-08-01T02:11:17.173Z,8.98
2022-08-01T02:13:48.910Z,10.52
2022-08-01T02:16:23.665Z,10.68
2022-08-01T02:18:53.770Z,10.88
2022-08-01T02:21:30.640Z,10.98
2022-08-01T02:24:18.674Z,14.05
2022-08-01T02:26:53.976Z,11.23
2022-08-01T02:29:27.974Z,10.27
2022-08-01T02:32:02.194Z,10.65
2022-08-01T02:34:34.997Z,10.70
2022-08-01T02:37:07.772Z,11.30
2022-08-01T02:39:40.523Z,11.30
2022-08-01T02:42:15.058Z,11.23
2022-08-01T02:44:47.341Z,12.93
2022-08-01T02:47:22.862Z,13.23
2022-08-01T02:49:56.456Z,18.20
2022-08-01T02:52:29.204Z,12.95
2022-08-01T02:55:00.935Z,17.13
2022-08-01T02:57:47.292Z,14.40
2022-08-01T03:00:24.779Z,13.23
2022-08-01T03:02:59.167Z,11.65
2022-08-01T03:05:30.153Z,13.13
2022-08-01T03:08:03.570Z,11.35
2022-08-01T03:10:35.477Z,10.95
2022-08-01T03:13:06.860Z,12.90
2022-08-01T03:15:40.290Z,12.05
2022-08-01T03:18:15.005Z,12.48
2022-08-01T03:20:46.649Z,15.48
2022-08-01T03:23:18.336Z,14.95
2022-08-01T03:25:49.331Z,13.27
2022-08-01T03:28:21.206Z,14.55
2022-08-01T03:30:52.307Z,11.77
2022-08-01T03:33:24.909Z,10.27
2022-08-01T03:35:58.900Z,11.50
2022-08-01T03:38:31.793Z,11.48
2022-08-01T03:41:07.262Z,12.70
2022-08-01T03:43:42.723Z,13.32
2022-08-01T03:46:17.613Z,13.25
2022-08-01T03:48:52.991Z,12.90
2022-08-01T03:51:26.745Z,13.75
2022-08-01T03:53:59.679Z,9.90
2022-08-01T03:56:33.005Z,10.45
2022-08-01T03:59:04.529Z,10.27
2022-08-01T04:01:36.017Z,10.63
2022-08-01T04:04:09.099Z,9.70
2022-08-01T04:06:41.867Z,10.15
2022-08-01T04:09:13.950Z,9.63
2022-08-01T04:11:45.345Z,10.43
2022-08-01T04:14:15.255Z,10.18
2022-08-01T04:16:45.202Z,9.68
2022-08-01T04:19:18.349Z,8.88
2022-08-01T04:21:48.281Z,9.23
2022-08-01T04:24:22.332Z,9.18
2022-08-01T04:26:54.858Z,8.40
2022-08-01T04:29:26.567Z,7.68
2022-08-01T04:31:59.181Z,11.10
2022-08-01T04:34:34.541Z,7.80
2022-08-01T04:37:06.177Z,6.90
2022-08-01T04:39:50.792Z,6.75
2022-08-01T04:42:28.153Z,7.45
2022-08-01T04:45:01.215Z,6.55
2022-08-01T04:47:31.624Z,9.65
2022-08-01T04:50:04.591Z,8.90
2022-08-01T04:52:38.069Z,8.68
2022-08-01T04:55:09.980Z,7.93
2022-08-01T04:57:42.934Z,8.35
2022-08-01T05:00:13.774Z,7.68
2022-08-01T05:02:43.701Z,7.70
2022-08-01T05:05:16.353Z,6.82
2022-08-01T05:07:46.333Z,8.93
2022-08-01T05:10:16.349Z,7.93
2022-08-01T05:12:47.723Z,8.15
2022-08-01T05:15:17.731Z,6.55
2022-08-01T05:17:47.956Z,6.55
2022-08-01T05:20:20.520Z,7.10
2022-08-01T05:22:50.467Z,7.32
2022-08-01T05:25:33.072Z,7.25
2022-08-01T05:28:10.327Z,9.00
2022-08-01T05:30:40.285Z,7.13
2022-08-01T05:33:10.323Z,11.07
2022-08-01T05:35:49.018Z,6.80
2022-08-01T05:38:19.538Z,7.13
2022-08-01T05:40:49.608Z,8.48
2022-08-01T05:43:19.619Z,6.95
2022-08-01T05:45:49.650Z,9.82
2022-08-01T05:48:19.645Z,7.90
2022-08-01T05:50:56.773Z,7.32
2022-08-01T05:53:28.487Z,7.25
2022-08-01T05:55:59.146Z,6.10
2022-08-01T05:58:29.081Z,6.05
2022-08-01T06:00:59.014Z,4.38
2022-08-01T06:03:32.247Z,6.15
2022-08-01T06:06:05.162Z,8.50
2022-08-01T06:08:35.385Z,7.82
2022-08-01T06:11:05.586Z,6.60
2022-08-01T06:13:47.054Z,7.20
2022-08-01T06:16:19.130Z,6.70
2022-08-01T06:18:49.061Z,6.75
2022-08-01T06:21:21.622Z,8.23
2022-08-01T06:23:51.609Z,6.72
2022-08-01T06:26:22.578Z,10.93
2022-08-01T06:28:52.515Z,6.03
2022-08-01T06:31:22.498Z,5.95
2022-08-01T06:33:52.467Z,7.45
2022-08-01T06:36:25.017Z,8.73
2022-08-01T06:38:55.038Z,7.80
2022-08-01T06:41:24.942Z,7.20
2022-08-01T06:43:54.884Z,6.90
2022-08-01T06:46:24.836Z,8.45
2022-08-01T06:49:00.556Z,8.23
2022-08-01T06:51:33.212Z,6.82
2022-08-01T06:54:03.141Z,8.43
2022-08-01T06:56:33.179Z,7.13
2022-08-01T06:59:03.135Z,6.38
2022-08-01T07:01:35.154Z,8.95
2022-08-01T07:04:05.544Z,9.57
2022-08-01T07:06:38.204Z,8.88
2022-08-01T07:09:13.614Z,11.10
2022-08-01T07:11:44.357Z,8.02
2022-08-01T07:14:14.304Z,9.07
2022-08-01T07:16:44.310Z,6.40
2022-08-01T07:19:14.350Z,5.82
2022-08-01T07:21:49.344Z,6.55
2022-08-01T07:24:20.924Z,6.55
2022-08-01T07:26:54.349Z,4.93
2022-08-01T07:29:26.080Z,6.85
2022-08-01T07:31:57.415Z,11.93
2022-08-01T07:34:28.696Z,9.35
2022-08-01T07:37:01.257Z,9.43
2022-08-01T07:39:31.179Z,6.57
2022-08-01T07:42:06.294Z,8.98
2022-08-01T07:44:37.962Z,8.52
2022-08-01T07:47:08.937Z,5.35
2022-08-01T07:49:41.215Z,7.72
2022-08-01T07:52:14.188Z,7.30
2022-08-01T07:54:45.464Z,8.00
2022-08-01T07:57:18.040Z,7.95
2022-08-01T07:59:48.147Z,6.18
2022-08-01T08:02:18.257Z,8.77
2022-08-01T08:04:49.201Z,6.07
2022-08-01T08:07:22.140Z,6.50
2022-08-01T08:09:52.094Z,5.80
2022-08-01T08:12:28.958Z,5.93
2022-08-01T08:15:00.092Z,7.90
2022-08-01T08:17:35.538Z,6.28
2022-08-01T08:20:09.195Z,4.60
2022-08-01T08:22:42.210Z,5.03
2022-08-01T08:25:12.846Z,6.72
2022-08-01T08:27:42.917Z,7.50
2022-08-01T08:30:13.787Z,6.63
2022-08-01T08:32:44.208Z,5.97
2022-08-01T08:35:18.451Z,8.90
2022-08-01T08:37:56.152Z,8.73
2022-08-01T08:40:33.978Z,4.00
2022-08-01T08:43:04.508Z,5.55
2022-08-01T08:45:56.283Z,6.10
2022-08-01T08:48:27.650Z,6.70
2022-08-01T08:51:01.700Z,4.45
2022-08-01T08:53:37.048Z,5.25
2022-08-01T08:56:10.440Z,7.22
2022-08-01T08:58:41.575Z,5.07
2022-08-01T09:01:13.551Z,6.70
2022-08-01T09:03:44.320Z,4.88
2022-08-01T09:06:15.247Z,5.22
2022-08-01T09:08:47.875Z,6.45
2022-08-01T09:11:22.767Z,6.85
2022-08-01T09:14:06.926Z,5.57
2022-08-01T09:16:37.903Z,4.95
2022-08-01T09:19:16.284Z,9.90
2022-08-01T09:22:04.682Z,9.50
2022-08-01T09:24:38.633Z,5.28
2022-08-01T09:27:22.321Z,7.22
2022-08-01T09:30:00.841Z,6.95
2022-08-01T09:32:36.345Z,6.60
2022-08-01T09:35:31.206Z,5.25
2022-08-01T09:38:20.336Z,4.65
2022-08-01T09:40:55.847Z,5.13
2022-08-01T09:43:29.793Z,7.40
2022-08-01T09:46:02.674Z,9.13
2022-08-01T09:48:33.858Z,5.03
2022-08-01T09:51:09.357Z,5.30
2022-08-01T09:53:51.804Z,5.88
2022-08-01T09:56:26.727Z,6.85
2022-08-01T09:59:01.459Z,5.45
2022-08-01T10:01:45.054Z,5.88
2022-08-01T10:04:16.948Z,5.78
2022-08-01T10:06:50.967Z,6.20
2022-08-01T10:09:35.868Z,7.30
2022-08-01T10:12:15.939Z,7.07
2022-08-01T10:14:50.409Z,7.43
2022-08-01T10:17:22.705Z,5.93
2022-08-01T10:19:55.815Z,7.40
2022-08-01T10:22:28.582Z,6.70
2022-08-01T10:25:00.934Z,6.82
2022-08-01T10:27:39.408Z,5.88
2022-08-01T10:30:19.737Z,6.30
2022-08-01T10:32:55.017Z,5.78
2022-08-01T10:35:47.803Z,5.03
2022-08-01T10:38:16.647Z,6.40
2022-08-01T10:40:47.465Z,5.05
2022-08-01T10:43:21.683Z,6.85
2022-08-01T10:45:53.270Z,6.93
2022-08-01T10:48:29.605Z,5.68
2022-08-01T10:51:04.537Z,6.07
2022-08-01T10:53:42.648Z,6.13
2022-08-01T10:56:16.605Z,5.38
2022-08-01T10:58:52.780Z,5.50
2022-08-01T11:01:26.696Z,6.07
2022-08-01T11:04:13.965Z,5.43
2022-08-01T11:07:10.121Z,5.35
2022-08-01T11:09:51.464Z,4.63
2022-08-01T11:12:25.043Z,6.03
2022-08-01T11:15:31.758Z,6.28
2022-08-01T11:18:07.149Z,6.88
2022-08-01T11:20:42.329Z,12.15
2022-08-01T11:23:23.552Z,4.60
2022-08-01T11:26:29.373Z,4.30
2022-08-01T11:29:21.062Z,4.30
2022-08-01T11:31:53.173Z,5.45
2022-08-01T11:34:58.545Z,4.43
2022-08-01T11:37:30.684Z,4.22
2022-08-01T11:40:19.876Z,4.47
2022-08-01T11:42:54.095Z,8.27
2022-08-01T11:45:24.134Z,5.15
2022-08-01T11:47:54.886Z,4.07
2022-08-01T11:50:39.072Z,6.97
2022-08-01T11:53:11.414Z,4.70
2022-08-01T11:55:51.411Z,5.25
2022-08-01T11:58:29.339Z,4.38
2022-08-01T12:01:02.248Z,4.00
2022-08-01T12:03:34.710Z,11.18
2022-08-01T12:06:07.549Z,7.25
2022-08-01T12:08:38.267Z,7.50
2022-08-01T12:11:09.409Z,7.30
2022-08-01T12:13:47.689Z,9.52
2022-08-01T12:16:17.705Z,7.05
2022-08-01T12:18:48.486Z,7.50
2022-08-01T12:21:21.125Z,10.68
2022-08-01T12:24:04.461Z,8.35
2022-08-01T12:26:44.568Z,13.55
2022-08-01T12:29:14.481Z,8.05
2022-08-01T12:31:44.512Z,13.18
2022-08-01T12:34:29.941Z,16.52
2022-08-01T12:37:04.470Z,12.35
2022-08-01T12:39:38.403Z,15.27
2022-08-01T12:42:11.980Z,10.20
2022-08-01T12:44:42.881Z,11.90
2022-08-01T12:47:13.286Z,10.18
2022-08-01T12:49:46.329Z,7.85
2022-08-01T12:52:27.276Z,8.95
2022-08-01T12:55:22.001Z,10.15
2022-08-01T12:57:54.219Z,10.82
2022-08-01T13:00:27.435Z,8.23
2022-08-01T13:03:06.365Z,8.48
2022-08-01T13:05:47.136Z,10.77
2022-08-01T13:08:21.466Z,9.63
2022-08-01T13:10:52.743Z,11.82
2022-08-01T13:13:28.208Z,10.05
2022-08-01T13:16:12.153Z,13.52
2022-08-01T13:18:52.913Z,8.52
2022-08-01T13:21:24.731Z,9.65
2022-08-01T13:24:10.690Z,8.27
2022-08-01T13:26:48.150Z,7.40
2022-08-01T13:29:20.003Z,11.98
2022-08-01T13:31:50.297Z,9.48
2022-08-01T13:34:20.459Z,10.13
2022-08-01T13:36:50.629Z,9.00
2022-08-01T13:39:35.552Z,13.32
2022-08-01T13:42:05.865Z,14.38
2022-08-01T13:44:36.024Z,9.20
2022-08-01T13:47:14.990Z,10.38
2022-08-01T13:49:47.355Z,10.30
2022-08-01T13:52:17.354Z,8.70
2022-08-01T13:54:49.908Z,9.32
2022-08-01T13:57:20.965Z,8.05
2022-08-01T13:59:50.922Z,6.95
2022-08-01T14:02:21.084Z,8.82
2022-08-01T14:04:51.059Z,7.13
2022-08-01T14:07:21.141Z,6.20
2022-08-01T14:10:04.802Z,6.93
2022-08-01T14:12:45.779Z,6.57
2022-08-01T14:15:18.664Z,6.18
2022-08-01T14:18:06.368Z,7.25
2022-08-01T14:20:36.577Z,7.47
2022-08-01T14:23:08.852Z,7.45
2022-08-01T14:26:05.433Z,7.93
2022-08-01T14:28:34.467Z,7.85
2022-08-01T14:31:04.644Z,7.82
2022-08-01T14:33:34.763Z,10.38
2022-08-01T14:36:28.488Z,8.23
2022-08-01T14:38:54.777Z,7.65
2022-08-01T14:41:33.202Z,7.05
2022-08-01T14:44:03.586Z,7.95
2022-08-01T14:46:33.999Z,7.97
2022-08-01T14:49:04.260Z,7.57
2022-08-01T14:51:35.993Z,9.20
2022-08-01T14:54:05.991Z,9.40
2022-08-01T14:56:40.280Z,7.00
2022-08-01T14:59:21.715Z,7.47
2022-08-01T15:01:52.057Z,6.40
2022-08-01T15:04:21.931Z,8.95
2022-08-01T15:06:51.989Z,32.10
2022-08-01T15:09:21.920Z,9.57
2022-08-01T15:11:54.387Z,9.00
2022-08-01T15:14:36.785Z,9.30
2022-08-01T15:17:08.876Z,13.25
2022-08-01T15:19:42.076Z,9.13
2022-08-01T15:22:12.601Z,9.63
2022-08-01T15:24:42.724Z,8.57
2022-08-01T15:27:15.234Z,9.38
2022-08-01T15:29:46.317Z,9.63
2022-08-01T15:32:16.305Z,8.65
2022-08-01T15:34:46.798Z,11.77
2022-08-01T15:37:18.071Z,10.88
2022-08-01T15:39:47.991Z,10.48
2022-08-01T15:42:25.601Z,11.07
2022-08-01T15:44:57.447Z,8.85
2022-08-01T15:47:27.375Z,12.32
2022-08-01T15:50:00.567Z,8.88
2022-08-01T15:52:31.686Z,13.60
2022-08-01T15:55:01.969Z,10.65
2022-08-01T15:57:34.541Z,10.27
2022-08-01T16:00:04.490Z,8.68
2022-08-01T16:02:41.696Z,9.23
2022-08-01T16:05:13.030Z,10.35
2022-08-01T16:07:59.353Z,9.40
2022-08-01T16:10:31.568Z,10.27
2022-08-01T16:13:06.828Z,12.05
2022-08-01T16:15:38.058Z,8.23
2022-08-01T16:18:09.303Z,9.32
2022-08-01T16:20:45.028Z,10.02
2022-08-01T16:23:15.668Z,8.48
2022-08-01T16:25:46.634Z,6.97
2022-08-01T16:28:19.189Z,7.28
2022-08-01T16:31:10.112Z,6.97
2022-08-01T16:33:43.447Z,9.07
2022-08-01T16:36:24.963Z,7.03
2022-08-01T16:38:55.323Z,7.90
2022-08-01T16:41:25.254Z,12.10
2022-08-01T16:43:57.818Z,7.93
2022-08-01T16:46:28.200Z,10.73
2022-08-01T16:48:58.543Z,8.15
2022-08-01T16:51:32.552Z,8.18
2022-08-01T16:54:02.984Z,9.27
2022-08-01T16:56:33.522Z,5.43
2022-08-01T16:59:06.309Z,7.18
2022-08-01T17:02:01.365Z,7.53
2022-08-01T17:04:28.248Z,4.63
2022-08-01T17:06:58.409Z,3.53
2022-08-01T17:09:28.475Z,4.90
2022-08-01T17:11:58.473Z,4.82
2022-08-01T17:14:33.688Z,8.63
2022-08-01T17:17:04.118Z,6.68
2022-08-01T17:19:34.743Z,6.45
2022-08-01T17:22:05.000Z,5.53
2022-08-01T17:24:35.148Z,7.07
2022-08-01T17:27:09.425Z,7.82
2022-08-01T17:29:45.125Z,10.77
2022-08-01T17:32:16.219Z,9.98
2022-08-01T17:34:46.742Z,9.98
2022-08-01T17:37:16.979Z,11.65
2022-08-01T17:39:47.163Z,9.18
2022-08-01T17:42:18.063Z,9.05
2022-08-01T17:44:52.016Z,7.95
2022-08-01T17:47:47.987Z,15.13
2022-08-01T17:50:15.629Z,19.40
2022-08-01T17:52:46.416Z,9.15
2022-08-01T17:55:53.570Z,8.38
2022-08-01T17:58:06.944Z,8.05
2022-08-01T18:00:39.751Z,9.02
2022-08-01T18:03:10.582Z,7.20
2022-08-01T18:05:40.656Z,11.55
2022-08-01T18:08:11.790Z,5.13
2022-08-01T18:10:43.151Z,6.35
2022-08-01T18:13:16.653Z,5.82
2022-08-01T18:15:50.583Z,4.97
2022-08-01T18:18:33.148Z,6.13
2022-08-01T18:21:04.312Z,7.88
2022-08-01T18:23:34.370Z,5.28
2022-08-01T18:26:07.063Z,6.68
2022-08-01T18:28:41.815Z,5.60
2022-08-01T18:31:20.702Z,7.32
2022-08-01T18:33:51.961Z,6.47
2022-08-01T18:36:32.312Z,5.55
2022-08-01T18:39:05.549Z,9.02
2022-08-01T18:41:36.842Z,6.80
2022-08-01T18:44:08.983Z,9.63
2022-08-01T18:46:42.791Z,7.93
2022-08-01T18:49:14.564Z,6.35
2022-08-01T18:51:45.410Z,9.70
2022-08-01T18:54:15.798Z,9.00
2022-08-01T18:56:46.440Z,7.82
2022-08-01T18:59:16.775Z,8.20
2022-08-01T19:01:49.343Z,5.80
2022-08-01T19:04:19.328Z,5.05
2022-08-01T19:06:49.628Z,5.95
2022-08-01T19:09:20.801Z,5.75
2022-08-01T19:11:51.045Z,6.35
2022-08-01T19:14:20.967Z,7.72
2022-08-01T19:16:53.526Z,7.20
2022-08-01T19:19:28.001Z,3.92
2022-08-01T19:21:58.360Z,7.57
2022-08-01T19:24:28.318Z,8.27
2022-08-01T19:27:05.138Z,3.55
2022-08-01T19:29:40.587Z,7.00
2022-08-01T19:32:13.301Z,2.75
2022-08-01T19:34:50.590Z,4.50
2022-08-01T19:37:26.736Z,3.30
2022-08-01T19:39:57.599Z,4.80
2022-08-01T19:42:28.067Z,7.05
2022-08-01T19:44:59.335Z,5.22
2022-08-01T19:47:52.010Z,7.18
2022-08-01T19:50:23.064Z,7.45
2022-08-01T19:52:55.533Z,7.10
2022-08-01T19:55:27.379Z,7.53
2022-08-01T19:58:25.826Z,9.98
2022-08-01T20:00:50.283Z,11.48
2022-08-01T20:03:25.178Z,9.70
2022-08-01T20:05:55.202Z,8.05
2022-08-01T20:08:25.711Z,9.88
2022-08-01T20:10:56.161Z,9.18
2022-08-01T20:13:27.057Z,8.40
2022-08-01T20:16:09.846Z,11.68
2022-08-01T20:18:42.710Z,11.45
2022-08-01T20:21:14.592Z,11.43
2022-08-01T20:23:47.540Z,12.07
2022-08-01T20:26:18.893Z,8.90
2022-08-01T20:28:51.654Z,14.55
2022-08-01T20:31:23.976Z,18.42
2022-08-01T20:34:00.101Z,14.25
2022-08-01T20:36:31.593Z,10.88
2022-08-01T20:39:04.666Z,10.70
2022-08-01T20:41:39.088Z,4.70
2022-08-01T20:44:10.983Z,6.80
2022-08-01T20:46:41.891Z,6.13
2022-08-01T20:49:15.203Z,6.07
2022-08-01T20:51:46.089Z,6.53
2022-08-01T20:54:16.632Z,4.57
2022-08-01T20:56:54.255Z,7.63
2022-08-01T20:59:39.918Z,7.60
2022-08-01T21:02:35.985Z,4.80
2022-08-01T21:05:11.901Z,5.97
2022-08-01T21:07:45.766Z,5.00
2022-08-01T21:10:18.125Z,4.72
2022-08-01T21:12:51.964Z,5.53
2022-08-01T21:15:30.103Z,3.85
2022-08-01T21:18:06.275Z,4.13
2022-08-01T21:20:43.382Z,3.03
2022-08-01T21:23:23.020Z,10.85
2022-08-01T21:25:53.895Z,5.70
2022-08-01T21:28:26.845Z,5.07
2022-08-01T21:30:59.687Z,9.00
2022-08-01T21:33:31.770Z,8.50
2022-08-01T21:36:06.647Z,5.78
2022-08-01T21:38:40.584Z,8.07
2022-08-01T21:41:11.958Z,5.45
2022-08-01T21:43:44.990Z,6.15
2022-08-01T21:46:15.441Z,5.20
2022-08-01T21:48:46.057Z,7.20
2022-08-01T21:51:31.135Z,5.63
2022-08-01T21:54:10.246Z,12.20
2022-08-01T21:56:50.822Z,5.53
2022-08-01T21:59:29.010Z,4.53
2022-08-01T22:02:04.965Z,5.13
2022-08-01T22:04:41.925Z,4.28
2022-08-01T22:07:18.461Z,4.97
2022-08-01T22:09:51.142Z,4.45
2022-08-01T22:12:22.421Z,5.80
2022-08-01T22:14:57.126Z,4.45
2022-08-01T22:17:28.013Z,5.22
2022-08-01T22:19:58.727Z,7.40
2022-08-01T22:22:50.877Z,5.50
2022-08-01T22:25:23.563Z,4.47
2022-08-01T22:28:06.627Z,3.80
2022-08-01T22:30:44.383Z,6.13
2022-08-01T22:33:17.641Z,4.07
2022-08-01T22:35:49.387Z,7.78
2022-08-01T22:38:23.845Z,6.47
2022-08-01T22:40:56.896Z,5.45
2022-08-01T22:43:32.600Z,5.15
2022-08-01T22:46:17.554Z,4.97
2022-08-01T22:48:52.546Z,7.95
2022-08-01T22:51:54.650Z,6.47
2022-08-01T22:54:32.745Z,4.28
2022-08-01T22:57:07.580Z,6.03
2022-08-01T22:59:56.088Z,7.07
2022-08-01T23:02:26.051Z,5.13
2022-08-01T23:05:04.218Z,5.72
2022-08-01T23:07:36.770Z,9.50
2022-08-01T23:10:11.467Z,6.90
2022-08-01T23:12:42.465Z,6.78
2022-08-01T23:15:14.964Z,6.63
2022-08-01T23:17:45.875Z,5.53
2022-08-01T23:20:16.075Z,7.75
2022-08-01T23:22:46.723Z,9.05
2022-08-01T23:25:20.966Z,7.78
2022-08-01T23:28:05.010Z,4.43
2022-08-01T23:30:38.148Z,8.43
2022-08-01T23:33:08.580Z,6.55
2022-08-01T23:35:38.930Z,4.13
2022-08-01T23:38:10.931Z,6.93
2022-08-01T23:40:43.663Z,5.53
2022-08-01T23:43:16.848Z,6.13
2022-08-01T23:46:02.308Z,6.22
2022-08-01T23:48:34.781Z,5.28
2022-08-01T23:51:05.000Z,5.95
2022-08-01T23:53:36.056Z,7.45
2022-08-01T23:56:11.073Z,5.47
2022-08-01T23:58:43.952Z,5.15
